Time;durP1;ratioP1;P1;durP2;ratioP2;P2;SDS_P1;SDS_P2;PMS_P1;PMS_P2;Temp;Humidity;BMP_temperature;BMP_pressure;BME280_temperature;BME280_humidity;BME280_pressure;Samples;Min_cycle;Max_cycle;Signal;HPM_P1;HPM_P2
2022/11/02 05:50:23;;;;;;;28.42;14.35;;;;;;;4.31;87.07;100124.41;1717218;82;21124;-39
2022/11/02 05:52:51;;;;;;;29.12;15.03;;;;;;;4.37;87.11;100111.59;1734156;82;21033;-37
2022/11/02 05:55:18;;;;;;;26.75;13.38;;;;;;;4.41;87.44;100114.70;1713757;81;21012;-38
2022/11/02 05:57:53;;;;;;;29.92;14.63;;;;;;;4.46;87.95;100117.81;1704316;81;21056;-37
2022/11/02 06:00:20;;;;;;;25.08;12.90;;;;;;;4.52;88.47;100113.19;1722527;81;21080;-45
2022/11/02 06:02:48;;;;;;;25.52;12.60;;;;;;;4.59;89.03;100112.92;1714156;82;21041;-39
2022/11/02 06:05:15;;;;;;;28.32;13.55;;;;;;;4.67;89.29;100113.52;1715134;82;20993;-44
2022/11/02 06:07:41;;;;;;;28.32;13.53;;;;;;;4.78;89.56;100119.80;1703995;83;21091;-38
2022/11/02 06:10:08;;;;;;;28.12;14.03;;;;;;;4.88;89.75;100117.41;1708716;83;21050;-40
2022/11/02 06:12:35;;;;;;;25.12;12.60;;;;;;;4.98;89.81;100118.02;1734835;83;21074;-45
2022/11/02 06:15:04;;;;;;;24.65;12.53;;;;;;;5.08;90.00;100118.23;1734655;82;21057;-44
2022/11/02 06:17:38;;;;;;;28.25;14.33;;;;;;;5.21;90.18;100121.06;1729277;81;21559;-39
2022/11/02 06:20:07;;;;;;;28.85;16.48;;;;;;;5.29;90.23;100126.86;1707840;83;21104;-45
2022/11/02 06:22:40;;;;;;;23.62;12.45;;;;;;;5.43;90.52;100128.39;1735232;83;21005;-38
2022/11/02 06:25:07;;;;;;;;;;;;;;;5.58;90.39;100136.89;1735172;82;21041;-45
2022/11/02 06:27:34;;;;;;;24.43;13.15;;;;;;;5.72;90.14;100139.72;1733947;83;20128;-47
2022/11/02 06:30:00;;;;;;;21.68;11.57;;;;;;;5.83;90.09;100140.77;1684868;85;21060;-39
2022/11/02 06:32:27;;;;;;;25.57;11.75;;;;;;;5.94;90.18;100134.06;1731763;83;21053;-39
2022/11/02 06:34:54;;;;;;;20.43;10.65;;;;;;;6.06;90.04;100137.28;1727542;82;21072;-45
2022/11/02 06:37:21;;;;;;;29.37;12.43;;;;;;;6.19;89.88;100130.12;1721826;82;21547;-45
2022/11/02 06:39:48;;;;;;;22.52;11.10;;;;;;;6.31;89.59;100124.23;1728692;82;21033;-45
2022/11/02 06:42:16;;;;;;;19.82;10.82;;;;;;;6.42;89.40;100132.18;1711943;82;21009;-38
2022/11/02 06:44:43;;;;;;;21.27;11.30;;;;;;;6.52;89.43;100125.84;1731009;82;21104;-39
2022/11/02 06:47:10;;;;;;;17.57;11.00;;;;;;;6.67;89.58;100131.69;1705236;83;20986;-45
2022/11/02 06:49:37;;;;;;;28.60;11.80;;;;;;;6.81;89.35;100126.22;1706527;82;21049;-38
2022/11/02 06:52:04;;;;;;;19.90;11.53;;;;;;;6.92;89.03;100125.05;1729817;81;20981;-44
2022/11/02 06:54:31;;;;;;;17.57;11.15;;;;;;;7.02;88.84;100115.64;1733779;81;21019;-39
2022/11/02 06:56:58;;;;;;;20.23;12.78;;;;;;;7.11;89.10;100111.83;1736706;82;20970;-38
2022/11/02 06:59:24;;;;;;;18.87;11.50;;;;;;;7.19;89.22;100111.06;1744671;81;21004;-44
2022/11/02 07:01:52;;;;;;;29.92;14.30;;;;;;;7.29;89.35;100099.00;1729942;82;21005;-46
2022/11/02 07:04:21;;;;;;;26.23;13.20;;;;;;;7.40;89.42;100101.28;1746884;81;21549;-44
2022/11/02 07:06:48;;;;;;;22.73;12.65;;;;;;;7.53;89.24;100100.97;1746830;82;21059;-43
2022/11/02 07:09:14;;;;;;;27.67;14.15;;;;;;;7.66;89.02;100095.46;1746934;81;21094;-37
2022/11/02 07:11:41;;;;;;;23.70;12.80;;;;;;;7.80;89.14;100088.63;1747198;82;22153;-38
2022/11/02 07:14:08;;;;;;;26.60;13.53;;;;;;;7.92;89.13;100082.20;1746753;81;21109;-38
2022/11/02 07:16:35;;;;;;;26.10;13.75;;;;;;;8.05;88.93;100079.68;1745336;82;21003;-39
2022/11/02 07:19:02;;;;;;;28.38;14.30;;;;;;;8.16;88.96;100074.11;1746785;81;21133;-45
2022/11/02 07:21:28;;;;;;;21.90;12.60;;;;;;;8.24;88.82;100064.63;1743384;82;20994;-37
2022/11/02 07:23:55;;;;;;;23.00;14.03;;;;;;;8.33;88.82;100059.88;1746975;81;21011;-45
2022/11/02 07:26:22;;;;;;;25.12;14.30;;;;;;;8.39;88.94;100060.81;1746630;82;21027;-45
2022/11/02 07:28:49;;;;;;;21.68;13.70;;;;;;;8.46;89.13;100046.92;1746864;81;21114;-44
2022/11/02 07:31:16;;;;;;;28.60;14.00;;;;;;;8.52;89.40;100044.37;1720243;82;21119;-44
2022/11/02 07:33:42;;;;;;;21.20;12.75;;;;;;;8.59;89.79;100041.80;1706968;83;21654;-38
2022/11/02 07:36:09;;;;;;;20.43;12.78;;;;;;;8.65;90.06;100043.99;1714411;82;21100;-37
2022/11/02 07:38:36;;;;;;;22.00;12.53;;;;;;;8.68;90.22;100037.90;1707637;83;21085;-38
2022/11/02 07:41:03;;;;;;;20.90;13.05;;;;;;;8.73;90.79;100038.79;1702256;84;21133;-46
2022/11/02 07:43:30;;;;;;;25.75;12.75;;;;;;;8.78;91.13;100035.33;1742088;81;21072;-45
2022/11/02 07:46:04;;;;;;;20.72;12.20;;;;;;;8.85;91.56;100025.78;1743880;82;21033;-45
2022/11/02 07:48:32;;;;;;;24.25;12.98;;;;;;;8.90;91.82;100018.84;1743063;81;21053;-38
2022/11/02 07:50:59;;;;;;;21.90;12.88;;;;;;;8.97;91.93;100015.38;1741741;81;21674;-37
2022/11/02 07:53:26;;;;;;;22.17;12.05;;;;;;;9.04;92.20;100013.23;1746159;81;21502;-45
2022/11/02 07:55:52;;;;;;;18.37;11.63;;;;;;;9.13;92.38;100014.97;1734560;82;21049;-46
2022/11/02 07:58:19;;;;;;;25.52;11.97;;;;;;;9.23;92.69;100007.59;1728454;82;21526;-38
2022/11/02 08:00:46;;;;;;;20.23;10.75;;;;;;;9.37;93.43;100007.59;1739910;81;21009;-38
2022/11/02 08:03:13;;;;;;;23.85;12.98;;;;;;;9.51;93.83;100005.87;1738312;81;21068;-39
2022/11/02 08:05:42;;;;;;;20.65;10.88;;;;;;;9.66;93.86;100007.58;1720719;82;21559;-38
2022/11/02 08:08:17;;;;;;;18.65;10.28;;;;;;;9.80;94.49;100002.36;1742092;81;21571;-37
2022/11/02 08:10:46;;;;;;;17.20;10.23;;;;;;;9.88;95.54;100001.91;1731072;82;21027;-45
2022/11/02 08:13:17;;;;;;;19.82;10.72;;;;;;;9.96;96.52;99996.21;1711065;82;21071;-38
2022/11/02 08:15:50;;;;;;;18.12;11.20;;;;;;;10.02;96.53;99997.94;1719181;82;21552;-37
2022/11/02 08:18:24;;;;;;;16.15;10.20;;;;;;;10.08;96.69;99998.79;1728399;81;21032;-38
2022/11/02 08:20:54;;;;;;;16.60;9.73;;;;;;;10.14;96.48;99996.59;1736055;82;21501;-38
2022/11/02 08:23:21;;;;;;;22.20;10.30;;;;;;;10.22;96.28;99990.92;1718294;82;21583;-45
2022/11/02 08:25:49;;;;;;;20.30;11.80;;;;;;;10.28;95.81;99987.02;1719037;82;21032;-45
2022/11/02 08:28:23;;;;;;;19.82;10.82;;;;;;;10.36;95.52;99988.28;1724998;82;21753;-37
2022/11/02 08:30:51;;;;;;;24.35;10.53;;;;;;;10.44;94.83;99983.91;1728232;82;21064;-39
2022/11/02 08:33:18;;;;;;;17.00;8.85;;;;;;;10.54;94.84;99980.34;1712335;82;21247;-39
2022/11/02 08:35:47;;;;;;;13.95;9.15;;;;;;;10.66;94.01;99977.66;1725231;82;21013;-44
2022/11/02 08:38:14;;;;;;;13.55;9.30;;;;;;;10.78;92.32;99986.33;1739781;81;21671;-46
2022/11/02 08:40:43;;;;;;;14.07;9.15;;;;;;;10.83;91.11;99983.25;1723942;82;21004;-38
2022/11/02 08:43:12;;;;;;;17.30;10.05;;;;;;;10.88;90.90;99978.41;1729017;81;21057;-44
2022/11/02 08:45:41;;;;;;;13.75;8.65;;;;;;;10.98;90.57;99967.90;1740847;82;20981;-38
2022/11/02 08:48:08;;;;;;;18.85;9.68;;;;;;;11.07;89.72;99976.98;1747166;81;21033;-45
2022/11/02 08:50:36;;;;;;;16.50;10.13;;;;;;;11.12;88.78;99967.34;1733748;81;21030;-38
2022/11/02 08:53:03;;;;;;;19.60;8.70;;;;;;;11.14;88.29;99967.78;1714614;82;21041;-39
2022/11/02 08:55:31;;;;;;;15.78;9.58;;;;;;;11.23;87.61;99953.73;1719788;82;21019;-39
2022/11/02 08:57:58;;;;;;;12.82;8.48;;;;;;;11.38;87.71;99944.89;1732545;81;21029;-45
2022/11/02 09:00:30;;;;;;;16.45;9.63;;;;;;;11.56;86.93;99942.55;1725396;82;21532;-45
2022/11/02 09:03:08;;;;;;;15.55;10.38;;;;;;;11.70;85.44;99941.95;1721833;82;21501;-45
2022/11/02 09:05:37;;;;;;;17.75;11.00;;;;;;;11.77;84.03;99942.34;1704779;82;21018;-45
2022/11/02 09:08:06;;;;;;;14.53;8.73;;;;;;;11.84;82.89;99936.62;1711480;83;21009;-38
2022/11/02 09:10:35;;;;;;;14.63;8.40;;;;;;;11.93;82.33;99934.75;1721097;82;21039;-39
2022/11/02 09:13:04;;;;;;;16.77;9.95;;;;;;;12.06;81.76;99927.63;1682692;84;21630;-38
2022/11/02 09:15:34;;;;;;;18.55;9.95;;;;;;;12.12;81.27;99926.25;1719239;82;21064;-47
2022/11/02 09:18:01;;;;;;;16.65;9.25;;;;;;;12.21;81.20;99920.87;1711741;82;21041;-46
2022/11/02 09:20:28;;;;;;;13.58;8.43;;;;;;;12.31;80.37;99922.94;1712684;82;20989;-46
2022/11/02 09:22:55;;;;;;;13.10;8.35;;;;;;;12.37;80.51;99925.92;1708386;82;21072;-39
2022/11/02 09:25:21;;;;;;;20.08;9.05;;;;;;;12.47;79.68;99923.61;1711955;82;21020;-40
2022/11/02 09:27:53;;;;;;;12.40;8.30;;;;;;;12.53;79.29;99919.59;1710807;82;21024;-39
2022/11/02 09:30:20;;;;;;;15.48;8.45;;;;;;;12.62;78.96;99922.07;1712443;82;21573;-45
2022/11/02 09:32:57;;;;;;;18.73;9.53;;;;;;;12.70;78.22;99914.97;1703469;84;21071;-46
2022/11/02 09:35:26;;;;;;;13.45;8.50;;;;;;;12.72;77.26;99918.43;1712049;82;21006;-45
2022/11/02 09:37:53;;;;;;;14.18;9.25;;;;;;;12.69;77.66;99909.27;1709461;82;21060;-38
2022/11/02 09:40:26;;;;;;;14.15;9.35;;;;;;;12.70;76.98;99911.03;1709679;82;21016;-45
2022/11/02 09:43:04;;;;;;;14.05;8.08;;;;;;;12.73;77.08;99915.36;1708200;82;21819;-45
2022/11/02 09:45:35;;;;;;;15.70;8.15;;;;;;;12.80;76.64;99905.18;1710510;82;21643;-38
2022/11/02 09:48:17;;;;;;;19.85;9.03;;;;;;;12.92;76.20;99906.30;1710717;82;21009;-44
2022/11/02 09:50:49;;;;;;;15.15;8.53;;;;;;;13.00;75.66;99896.56;1707917;82;21089;-39
2022/11/02 09:53:23;;;;;;;19.57;9.80;;;;;;;13.13;75.32;99903.78;1683811;84;21042;-45
2022/11/02 09:55:55;;;;;;;17.60;9.85;;;;;;;13.29;74.40;99897.87;1699958;83;21602;-44
2022/11/02 09:58:33;;;;;;;16.73;9.00;;;;;;;13.47;73.54;99897.98;1692926;84;21045;-45
2022/11/02 10:01:22;;;;;;;17.17;9.08;;;;;;;13.78;73.30;99886.44;1694106;83;21420;-45
2022/11/02 10:04:14;;;;;;;20.88;9.35;;;;;;;14.24;71.51;99881.55;1690211;83;21077;-45
2022/11/02 10:06:43;;;;;;;14.23;8.75;;;;;;;14.80;69.54;99875.05;1690315;84;20994;-38
2022/11/02 10:09:22;;;;;;;15.63;8.78;;;;;;;15.36;67.42;99862.20;1683301;84;21645;-45
2022/11/02 10:12:00;;;;;;;19.10;9.20;;;;;;;15.80;65.55;99864.58;1700960;83;21025;-45
2022/11/02 10:14:34;;;;;;;13.93;8.25;;;;;;;16.17;63.33;99868.33;1701223;83;21614;-45
2022/11/02 10:17:26;;;;;;;12.58;7.45;;;;;;;16.38;63.73;99858.46;1696613;84;21577;-45
2022/11/02 10:19:55;;;;;;;15.00;8.17;;;;;;;16.61;61.87;99855.56;1696114;84;21000;-46
2022/11/02 10:22:30;;;;;;;16.40;8.33;;;;;;;16.57;61.25;99857.42;1691617;83;21028;-46
2022/11/02 10:24:56;;;;;;;14.83;9.15;;;;;;;16.50;61.30;99863.36;1696562;84;21045;-39
2022/11/02 10:27:28;;;;;;;12.78;8.45;;;;;;;16.51;60.89;99862.90;1676843;84;20982;-39
2022/11/02 10:30:14;;;;;;;11.60;8.13;;;;;;;16.68;59.73;99859.73;1689952;84;21519;-46
2022/11/02 10:32:43;;;;;;;12.40;8.50;;;;;;;16.93;58.68;99855.86;1704422;82;21119;-45
2022/11/02 10:35:33;;;;;;;15.68;9.35;;;;;;;17.23;58.49;99859.28;1691074;84;21006;-39
2022/11/02 10:38:24;;;;;;;14.58;8.55;;;;;;;17.67;57.56;99852.88;1700501;83;21042;-39
2022/11/02 10:41:25;;;;;;;16.60;7.83;;;;;;;17.97;55.88;99850.45;1699394;84;21608;-46
2022/11/02 10:44:17;;;;;;;17.48;9.38;;;;;;;18.37;54.47;99850.27;1690630;83;21110;-38
2022/11/02 10:46:52;;;;;;;15.95;9.55;;;;;;;18.75;52.40;99844.81;1681112;84;21130;-46
2022/11/02 10:49:41;;;;;;;16.62;9.55;;;;;;;19.02;51.09;99840.64;1630645;87;21080;-38
2022/11/02 10:52:12;;;;;;;14.28;9.33;;;;;;;19.26;50.21;99845.37;1720518;82;21026;-38
2022/11/02 10:54:40;;;;;;;17.02;8.88;;;;;;;19.51;49.41;99838.06;1733312;81;21057;-39
2022/11/02 10:57:12;;;;;;;18.57;9.48;;;;;;;19.86;49.11;99836.98;1723435;82;21060;-39
2022/11/02 10:59:40;;;;;;;12.75;8.10;;;;;;;20.48;46.64;99836.36;1740472;81;21081;-45
2022/11/02 11:02:12;;;;;;;20.05;10.35;;;;;;;20.48;46.64;99836.36;1733835;82;21564;-40
2022/11/02 11:04:39;;;;;;;19.45;9.50;;;;;;;20.75;46.43;99836.33;1702450;83;21677;-44
2022/11/02 11:07:08;;;;;;;22.98;11.83;;;;;;;20.89;45.27;99833.02;1681808;85;21073;-39
2022/11/02 11:09:47;;;;;;;18.90;9.73;;;;;;;20.91;44.71;99826.67;1666602;85;21714;-46
2022/11/02 11:12:30;;;;;;;19.02;11.30;;;;;;;20.93;43.44;99827.47;1683563;85;21061;-39
2022/11/02 11:14:59;;;;;;;17.23;9.53;;;;;;;20.76;42.80;99828.77;1672888;85;21002;-46
2022/11/02 11:17:36;;;;;;;15.48;10.03;;;;;;;20.43;43.22;99820.13;1673470;85;21105;-45
2022/11/02 11:20:07;;;;;;;14.40;9.45;;;;;;;20.32;44.12;99822.44;1672877;85;21066;-38
2022/11/02 11:22:39;;;;;;;18.27;9.65;;;;;;;20.30;43.55;99815.49;1682647;85;21029;-45
2022/11/02 11:25:24;;;;;;;18.00;10.55;;;;;;;20.15;43.54;99816.59;1681963;85;21117;-46
2022/11/02 11:27:55;;;;;;;19.57;10.38;;;;;;;20.08;43.54;99808.99;1680142;84;21101;-44
2022/11/02 11:30:35;;;;;;;19.55;10.58;;;;;;;20.04;43.03;99802.95;1677218;85;21030;-45
2022/11/02 11:33:04;;;;;;;16.97;10.25;;;;;;;19.57;43.43;99797.99;1679574;84;21081;-46
2022/11/02 11:35:36;;;;;;;20.15;10.60;;;;;;;19.57;43.43;99797.99;1683268;85;20982;-47
2022/11/02 11:38:08;;;;;;;22.17;10.28;;;;;;;19.27;43.95;99801.54;1679667;84;21037;-46
2022/11/02 11:40:37;;;;;;;19.17;10.65;;;;;;;19.03;44.29;99797.30;1735869;81;21068;-42
2022/11/02 11:43:06;;;;;;;15.60;9.88;;;;;;;18.58;45.31;99802.22;1706899;83;21032;-45
2022/11/02 11:45:33;;;;;;;20.65;10.32;;;;;;;18.20;45.98;99806.38;1725552;82;20961;-39
2022/11/02 11:48:36;;;;;;;17.25;9.98;;;;;;;17.86;47.09;99812.98;1705791;83;21084;-46
2022/11/02 11:51:03;;;;;;;16.48;9.15;;;;;;;17.68;47.61;99811.81;1703696;83;21599;-45
2022/11/02 11:53:31;;;;;;;24.00;10.70;;;;;;;17.64;48.26;99808.04;1708739;83;21060;-45
2022/11/02 11:55:59;;;;;;;18.27;10.45;;;;;;;17.64;48.44;99800.97;1710656;83;21607;-39
2022/11/02 11:58:31;;;;;;;21.45;11.60;;;;;;;17.64;48.40;99805.39;1704265;83;21084;-45
2022/11/02 12:01:19;;;;;;;21.23;11.08;;;;;;;17.53;47.80;99806.64;1688183;84;21021;-39
2022/11/02 12:03:59;;;;;;;20.20;11.63;;;;;;;17.34;48.21;99805.58;1686926;84;21044;-37
2022/11/02 12:06:46;;;;;;;19.20;11.33;;;;;;;17.22;48.01;99805.98;1686051;84;21138;-39
2022/11/02 12:09:19;;;;;;;29.82;13.65;;;;;;;17.02;48.46;99807.55;1687274;83;21508;-45
2022/11/02 12:12:08;;;;;;;21.42;13.08;;;;;;;16.74;48.87;99819.48;1690857;84;21060;-38
2022/11/02 12:14:54;;;;;;;22.17;13.90;;;;;;;16.59;49.38;99825.25;1689533;84;21071;-38
2022/11/02 12:18:00;;;;;;;29.23;15.05;;;;;;;16.59;49.29;99821.75;1689382;83;21624;-46
2022/11/02 12:20:44;;;;;;;29.80;14.28;;;;;;;16.66;49.44;99813.56;1688417;84;21004;-40
2022/11/02 12:23:52;;;;;;;20.40;12.23;;;;;;;16.78;49.26;99807.05;1687917;83;21140;-39
2022/11/02 12:26:43;;;;;;;21.50;11.95;;;;;;;16.67;49.46;99810.47;1683317;84;21093;-38
2022/11/02 12:29:36;;;;;;;20.48;11.53;;;;;;;16.52;49.59;99805.67;1683460;84;21049;-45
2022/11/02 12:32:27;;;;;;;25.82;12.98;;;;;;;16.54;49.71;99801.22;1700449;84;21030;-38
2022/11/02 12:35:17;;;;;;;21.17;11.38;;;;;;;16.83;49.56;99805.13;1691667;84;20962;-46
2022/11/02 12:38:27;;;;;;;25.32;11.93;;;;;;;16.97;48.62;99800.23;1708921;82;21536;-42
2022/11/02 12:41:05;;;;;;;21.93;11.43;;;;;;;16.94;48.34;99796.84;1701536;84;21008;-37
2022/11/02 12:43:43;;;;;;;22.20;11.73;;;;;;;16.79;48.78;99798.67;1696558;84;21610;-38
2022/11/02 12:46:36;;;;;;;25.02;12.05;;;;;;;16.63;49.21;99803.09;1699301;83;21011;-45
2022/11/02 12:49:40;;;;;;;21.85;12.35;;;;;;;16.40;49.13;99806.92;1707324;83;21042;-38
2022/11/02 12:52:25;;;;;;;20.62;11.65;;;;;;;16.07;49.78;99800.47;1717300;82;21045;-46
2022/11/02 12:54:58;;;;;;;21.02;12.85;;;;;;;15.72;50.39;99800.20;1746873;82;21038;-40
2022/11/02 12:57:29;;;;;;;21.02;12.40;;;;;;;15.41;51.23;99806.73;1747168;81;21050;-38
2022/11/02 13:00:00;;;;;;;26.23;14.10;;;;;;;15.17;51.89;99805.63;1747282;82;21007;-39
2022/11/02 13:02:42;;;;;;;29.12;13.28;;;;;;;14.94;52.59;99809.31;1747285;81;21568;-45
2022/11/02 13:05:16;;;;;;;26.65;13.60;;;;;;;14.72;53.19;99806.34;1746989;82;21034;-45
2022/11/02 13:07:57;;;;;;;25.57;13.28;;;;;;;14.54;53.79;99811.15;1746182;81;21109;-45
2022/11/02 13:10:29;;;;;;;26.42;13.20;;;;;;;14.41;54.32;99811.45;1739313;82;21038;-44
2022/11/02 13:12:58;;;;;;;;;;;;;;;14.31;54.76;99810.34;1749868;81;21077;-38
2022/11/02 13:15:25;;;;;;;27.40;12.63;;;;;;;14.25;55.24;99807.84;1747034;82;20111;-45
2022/11/02 13:17:56;;;;;;;27.35;13.62;;;;;;;14.21;55.52;99807.98;1747356;81;21034;-39
2022/11/02 13:20:48;;;;;;;28.30;12.57;;;;;;;14.15;55.87;99816.88;1747672;82;21003;-39
2022/11/02 13:23:42;;;;;;;24.35;12.15;;;;;;;14.05;56.18;99811.39;1747145;81;21145;-38
2022/11/02 13:26:15;;;;;;;20.30;11.78;;;;;;;13.94;56.45;99807.66;1747083;82;21039;-37
2022/11/02 13:28:47;;;;;;;20.15;11.60;;;;;;;13.85;56.81;99809.16;1746817;81;21066;-38
2022/11/02 13:31:35;;;;;;;28.27;12.03;;;;;;;13.74;57.09;99814.67;1723363;82;21068;-38
2022/11/02 13:34:09;;;;;;;25.17;11.93;;;;;;;13.63;57.51;99815.78;1707221;83;21618;-39
2022/11/02 13:36:37;;;;;;;28.15;12.20;;;;;;;13.50;57.55;99823.88;1718546;82;21575;-45
2022/11/02 13:39:22;;;;;;;22.75;12.40;;;;;;;13.38;57.67;99828.06;1721973;82;21104;-46
2022/11/02 13:42:12;;;;;;;22.58;12.53;;;;;;;13.28;57.90;99827.84;1741447;82;21038;-38
2022/11/02 13:44:59;;;;;;;26.33;12.68;;;;;;;13.19;58.04;99827.95;1746861;81;21117;-44
2022/11/02 13:47:47;;;;;;;27.82;14.05;;;;;;;13.07;58.34;99825.55;1747316;81;21533;-45
2022/11/02 13:50:17;;;;;;;24.43;11.90;;;;;;;12.97;58.52;99832.27;1747019;82;21011;-45
2022/11/02 13:52:57;;;;;;;25.12;13.50;;;;;;;12.87;58.62;99832.44;1746943;81;21082;-46
2022/11/02 13:55:28;;;;;;;24.40;12.73;;;;;;;12.78;58.54;99840.03;1747189;82;21375;-45
2022/11/02 13:57:56;;;;;;;24.63;12.93;;;;;;;12.68;58.67;99839.30;1683023;85;21160;-44
2022/11/02 14:00:31;;;;;;;24.40;12.23;;;;;;;12.61;58.64;99851.24;1667684;84;21025;-39
2022/11/02 14:03:13;;;;;;;22.10;13.10;;;;;;;12.51;58.83;99850.50;1672303;84;21097;-38
2022/11/02 14:05:59;;;;;;;27.42;14.00;;;;;;;12.42;59.05;99850.66;1668906;85;21084;-46
2022/11/02 14:08:38;;;;;;;29.50;14.40;;;;;;;12.32;59.34;99854.30;1673433;85;21021;-45
2022/11/02 14:11:16;;;;;;;26.73;13.25;;;;;;;12.22;59.70;99857.03;1658606;85;21018;-39
2022/11/02 14:14:03;;;;;;;28.57;13.48;;;;;;;12.13;60.00;99855.86;1676770;84;21635;-47
2022/11/02 14:16:53;;;;;;;26.70;13.28;;;;;;;12.05;60.20;99865.56;1671441;85;21072;-40
2022/11/02 14:19:31;;;;;;;27.67;13.30;;;;;;;11.96;60.42;99861.31;1672793;84;21192;-46
2022/11/02 14:22:04;;;;;;;28.60;15.13;;;;;;;11.89;60.55;99869.29;1669551;85;21085;-40
2022/11/02 14:24:37;;;;;;;37.78;18.30;;;;;;;11.80;60.75;99871.53;1667285;86;21088;-40
2022/11/02 14:27:18;;;;;;;;;;;;;;;11.71;61.00;99869.00;1668681;86;21596;-39
2022/11/02 14:29:50;;;;;;;50.28;21.65;;;;;;;11.62;61.27;99875.22;1666340;86;20484;-39
2022/11/02 14:32:22;;;;;;;40.78;18.50;;;;;;;11.53;61.54;99882.30;1666636;85;21049;-39
2022/11/02 14:35:11;;;;;;;;;;;;;;;11.45;61.81;99882.39;1689575;82;21026;-39
2022/11/02 14:37:58;;;;;;;53.90;20.80;;;;;;;11.36;62.14;99885.09;1734523;81;20130;-47
2022/11/02 14:40:51;;;;;;;30.00;16.65;;;;;;;11.24;62.51;99890.00;1737351;82;21030;-44
2022/11/02 14:43:53;;;;;;;107.03;44.93;;;;;;;11.14;62.84;99890.98;1742012;81;21090;-41
2022/11/02 14:46:40;;;;;;;160.97;65.72;;;;;;;11.03;63.21;99900.68;1733703;82;21035;-47
2022/11/02 14:49:20;;;;;;;217.20;98.20;;;;;;;10.91;63.62;99897.27;1731564;81;21613;-47
2022/11/02 14:52:09;;;;;;;88.65;42.08;;;;;;;10.82;63.86;99903.01;1711444;82;21032;-39
2022/11/02 14:54:40;;;;;;;54.23;25.32;;;;;;;10.74;64.10;99908.75;1705929;83;21071;-39
2022/11/02 14:57:19;;;;;;;40.70;20.90;;;;;;;10.65;64.29;99913.14;1745052;82;21065;-39
2022/11/02 14:59:48;;;;;;;52.40;24.27;;;;;;;10.58;64.50;99912.76;1746832;81;21554;-39
2022/11/02 15:02:35;;;;;;;57.45;27.87;;;;;;;10.52;64.71;99917.16;1747296;82;21039;-46
2022/11/02 15:05:05;;;;;;;61.25;30.05;;;;;;;10.45;64.88;99920.25;1747676;82;21038;-39
2022/11/02 15:08:12;;;;;;;46.75;25.55;;;;;;;10.38;65.06;99926.41;1684656;84;21090;-47
2022/11/02 15:10:42;;;;;;;42.43;20.50;;;;;;;10.32;65.22;99928.61;1711290;83;21059;-40
2022/11/02 15:13:26;;;;;;;42.80;17.77;;;;;;;10.26;65.41;99927.73;1711329;84;21079;-40
2022/11/02 15:16:01;;;;;;;38.28;17.92;;;;;;;10.19;65.56;99937.33;1697494;83;21027;-40
2022/11/02 15:18:36;;;;;;;35.05;17.82;;;;;;;10.14;65.74;99936.03;1704272;83;21419;-47
